createdAt,value
2019-04-10T00:00:56.397Z,9.32
2019-04-10T00:01:57.976Z,9.29
2019-04-10T00:02:56.376Z,9.29
2019-04-10T00:03:56.749Z,9.29
2019-04-10T00:04:56.354Z,9.28
2019-04-10T00:05:56.424Z,9.31
2019-04-10T00:07:10.432Z,9.34
2019-04-10T00:07:56.322Z,9.26
2019-04-10T00:08:56.775Z,9.34
2019-04-10T00:09:57.295Z,9.26
2019-04-10T00:10:56.391Z,9.25
2019-04-10T00:11:57.000Z,9.28
2019-04-10T00:12:56.318Z,9.22
2019-04-10T00:13:56.259Z,9.25
2019-04-10T00:14:56.767Z,9.28
2019-04-10T00:15:57.070Z,9.19
2019-04-10T00:16:56.510Z,9.22
2019-04-10T00:17:56.217Z,9.19
2019-04-10T00:18:56.214Z,9.11
2019-04-10T00:19:56.198Z,9.13
2019-04-10T00:20:56.723Z,9.04
2019-04-10T00:21:56.174Z,9.06
2019-04-10T00:22:56.162Z,9.04
2019-04-10T00:23:56.152Z,8.95
2019-04-10T00:24:56.620Z,9.00
2019-04-10T00:25:57.174Z,9.04
2019-04-10T00:26:56.445Z,9.06
2019-04-10T00:27:56.109Z,9.03
2019-04-10T00:28:56.119Z,8.97
2019-04-10T00:29:56.484Z,9.00
2019-04-10T00:30:56.078Z,8.95
2019-04-10T00:31:56.373Z,9.02
2019-04-10T00:32:56.419Z,8.94
2019-04-10T00:33:56.948Z,9.02
2019-04-10T00:34:56.171Z,8.97
2019-04-10T00:35:56.165Z,8.97
2019-04-10T00:36:56.014Z,8.91
2019-04-10T00:37:56.002Z,8.89
2019-04-10T00:38:55.998Z,8.91
2019-04-10T00:39:57.071Z,8.79
2019-04-10T00:40:56.020Z,8.89
2019-04-10T00:41:56.753Z,8.81
2019-04-10T00:42:57.247Z,8.85
2019-04-10T00:43:55.942Z,8.81
2019-04-10T00:44:56.420Z,8.74
2019-04-10T00:45:55.917Z,8.76
2019-04-10T00:46:56.865Z,8.70
2019-04-10T00:47:55.893Z,8.71
2019-04-10T00:48:56.469Z,8.73
2019-04-10T00:49:55.871Z,8.73
2019-04-10T00:50:55.864Z,8.81
2019-04-10T00:51:55.854Z,8.73
2019-04-10T00:52:56.759Z,8.69
2019-04-10T00:53:55.830Z,8.64
2019-04-10T00:54:55.818Z,8.63
2019-04-10T00:55:56.468Z,8.61
2019-04-10T00:56:56.905Z,8.63
2019-04-10T00:57:56.184Z,8.53
2019-04-10T00:58:55.772Z,8.58
2019-04-10T00:59:56.732Z,8.63
2019-04-10T01:00:55.750Z,8.56
2019-04-10T01:01:56.266Z,8.46
2019-04-10T01:02:56.758Z,8.60
2019-04-10T01:03:56.386Z,8.55
2019-04-10T01:04:55.707Z,8.52
2019-04-10T01:05:55.697Z,8.46
2019-04-10T01:06:56.706Z,8.51
2019-04-10T01:07:56.017Z,8.60
2019-04-10T01:08:55.666Z,8.49
2019-04-10T01:09:55.698Z,8.48
2019-04-10T01:10:56.794Z,8.46
2019-04-10T01:11:55.636Z,8.42
2019-04-10T01:12:56.563Z,8.45
2019-04-10T01:13:55.608Z,8.42
2019-04-10T01:14:56.129Z,8.41
2019-04-10T01:15:55.585Z,8.37
2019-04-10T01:16:55.805Z,8.37
2019-04-10T01:17:55.570Z,8.30
2019-04-10T01:18:55.553Z,8.42
2019-04-10T01:19:56.510Z,8.38
2019-04-10T01:20:55.758Z,8.31
2019-04-10T01:21:55.520Z,8.28
2019-04-10T01:22:55.508Z,8.30
2019-04-10T01:23:55.498Z,8.30
2019-04-10T01:24:55.486Z,8.28
2019-04-10T01:25:55.475Z,8.30
2019-04-10T01:26:55.889Z,8.34
2019-04-10T01:27:56.316Z,8.33
2019-04-10T01:28:55.657Z,8.36
2019-04-10T01:29:55.430Z,8.34
2019-04-10T01:30:55.419Z,8.24
2019-04-10T01:31:55.408Z,8.18
2019-04-10T01:32:56.414Z,8.16
2019-04-10T01:33:55.390Z,8.13
2019-04-10T01:34:55.937Z,8.18
2019-04-10T01:35:56.284Z,8.18
2019-04-10T01:36:56.402Z,8.16
2019-04-10T01:38:00.506Z,8.10
2019-04-10T01:38:55.331Z,8.00
2019-04-10T01:39:55.319Z,8.06
2019-04-10T01:40:55.439Z,8.00
2019-04-10T01:41:56.369Z,8.06
2019-04-10T01:43:10.920Z,8.13
2019-04-10T01:43:55.323Z,7.98
2019-04-10T01:44:55.295Z,8.01
2019-04-10T01:45:55.252Z,8.05
2019-04-10T01:46:55.241Z,8.05
2019-04-10T01:47:55.351Z,8.08
2019-04-10T01:48:55.505Z,7.97
2019-04-10T01:49:55.785Z,7.98
2019-04-10T01:50:55.210Z,7.93
2019-04-10T01:51:55.358Z,7.95
2019-04-10T01:52:55.546Z,7.94
2019-04-10T01:53:55.163Z,7.93
2019-04-10T01:54:55.495Z,7.85
2019-04-10T01:55:55.575Z,7.94
2019-04-10T01:56:55.655Z,7.94
2019-04-10T01:57:55.118Z,7.90
2019-04-10T01:58:55.106Z,7.80
2019-04-10T01:59:55.095Z,7.87
2019-04-10T02:00:56.091Z,7.77
2019-04-10T02:01:55.074Z,7.79
2019-04-10T02:02:55.913Z,7.77
2019-04-10T02:03:55.275Z,7.72
2019-04-10T02:04:55.589Z,7.77
2019-04-10T02:05:55.028Z,7.72
2019-04-10T02:06:55.897Z,7.72
2019-04-10T02:08:03.210Z,7.72
2019-04-10T02:08:55.003Z,7.70
2019-04-10T02:09:56.045Z,7.58
2019-04-10T02:10:54.974Z,7.51
2019-04-10T02:11:54.960Z,7.51
2019-04-10T02:12:54.954Z,7.56
2019-04-10T02:13:56.673Z,7.57
2019-04-10T02:14:54.926Z,7.51
2019-04-10T02:15:54.916Z,7.54
2019-04-10T02:16:54.988Z,7.48
2019-04-10T02:17:55.135Z,7.47
2019-04-10T02:18:54.882Z,7.48
2019-04-10T02:19:54.870Z,7.48
2019-04-10T02:20:55.661Z,7.38
2019-04-10T02:21:54.850Z,7.39
2019-04-10T02:22:54.839Z,7.29
2019-04-10T02:23:54.828Z,7.31
2019-04-10T02:24:55.589Z,7.33
2019-04-10T02:25:54.897Z,7.29
2019-04-10T02:26:54.791Z,7.24
2019-04-10T02:27:54.780Z,7.29
2019-04-10T02:28:55.511Z,7.29
2019-04-10T02:29:55.712Z,7.24
2019-04-10T02:30:56.525Z,7.29
2019-04-10T02:31:55.519Z,7.24
2019-04-10T02:32:54.725Z,7.28
2019-04-10T02:33:56.998Z,7.24
2019-04-10T02:34:55.279Z,7.18
2019-04-10T02:35:54.941Z,7.18
2019-04-10T02:36:55.261Z,7.28
2019-04-10T02:37:56.096Z,7.23
2019-04-10T02:39:11.368Z,7.21
2019-04-10T02:39:57.962Z,7.15
2019-04-10T02:40:55.537Z,7.18
2019-04-10T02:41:56.045Z,7.18
2019-04-10T02:42:54.888Z,7.21
2019-04-10T02:43:55.573Z,7.13
2019-04-10T02:44:54.584Z,7.20
2019-04-10T02:45:55.748Z,7.18
2019-04-10T02:46:55.589Z,7.20
2019-04-10T02:47:55.079Z,7.13
2019-04-10T02:48:55.992Z,7.05
2019-04-10T02:49:54.672Z,7.02
2019-04-10T02:50:55.488Z,7.00
2019-04-10T02:51:54.982Z,6.96
2019-04-10T02:52:55.150Z,7.00
2019-04-10T02:53:56.128Z,7.05
2019-04-10T02:54:54.482Z,7.00
2019-04-10T02:55:55.786Z,7.02
2019-04-10T02:56:54.939Z,7.00
2019-04-10T02:57:56.269Z,7.02
2019-04-10T02:58:54.483Z,7.02
2019-04-10T02:59:55.801Z,7.03
2019-04-10T03:00:56.216Z,7.00
2019-04-10T03:01:55.917Z,6.95
2019-04-10T03:02:55.520Z,6.87
2019-04-10T03:03:55.495Z,6.85
2019-04-10T03:04:55.117Z,6.87
2019-04-10T03:05:54.381Z,6.84
2019-04-10T03:06:55.562Z,6.92
2019-04-10T03:07:55.740Z,6.88
2019-04-10T03:09:07.882Z,6.82
2019-04-10T03:10:05.849Z,6.79
2019-04-10T03:10:59.149Z,6.77
2019-04-10T03:11:55.393Z,6.84
2019-04-10T03:12:54.478Z,6.78
2019-04-10T03:13:55.590Z,6.77
2019-04-10T03:14:55.013Z,6.77
2019-04-10T03:15:55.738Z,6.70
2019-04-10T03:16:54.208Z,6.69
2019-04-10T03:17:54.525Z,6.74
2019-04-10T03:18:54.875Z,6.70
2019-04-10T03:19:54.172Z,6.66
2019-04-10T03:20:54.414Z,6.70
2019-04-10T03:21:54.149Z,6.74
2019-04-10T03:22:54.139Z,6.63
2019-04-10T03:23:54.124Z,6.74
2019-04-10T03:24:54.752Z,6.74
2019-04-10T03:25:54.101Z,6.60
2019-04-10T03:26:54.158Z,6.49
2019-04-10T03:27:54.493Z,6.51
2019-04-10T03:28:54.065Z,6.49
2019-04-10T03:29:54.056Z,6.57
2019-04-10T03:30:55.926Z,6.56
2019-04-10T03:31:55.383Z,6.59
2019-04-10T03:32:58.381Z,6.44
2019-04-10T03:33:55.437Z,6.48
2019-04-10T03:34:54.938Z,6.44
2019-04-10T03:35:54.874Z,6.45
2019-04-10T03:36:53.969Z,6.41
2019-04-10T03:37:53.958Z,6.44
2019-04-10T03:39:00.123Z,6.28
2019-04-10T03:39:53.933Z,6.33
2019-04-10T03:40:53.921Z,6.31
2019-04-10T03:41:54.656Z,6.22
2019-04-10T03:42:55.021Z,6.20
2019-04-10T03:43:54.277Z,6.20
2019-04-10T03:44:54.853Z,6.19
2019-04-10T03:45:55.033Z,6.14
2019-04-10T03:46:53.936Z,6.17
2019-04-10T03:47:53.838Z,6.08
2019-04-10T03:48:53.827Z,6.04
2019-04-10T03:49:54.036Z,6.02
2019-04-10T03:50:54.238Z,6.16
2019-04-10T03:51:54.582Z,6.16
2019-04-10T03:52:53.798Z,6.04
2019-04-10T03:53:54.246Z,6.05
2019-04-10T03:54:54.534Z,6.05
2019-04-10T03:55:53.774Z,6.04
2019-04-10T03:56:54.104Z,5.87
2019-04-10T03:57:53.718Z,5.94
2019-04-10T03:58:53.724Z,5.97
2019-04-10T03:59:53.870Z,5.94
2019-04-10T04:00:54.261Z,6.02
2019-04-10T04:01:53.670Z,5.98
2019-04-10T04:02:53.900Z,5.97
2019-04-10T04:03:53.646Z,5.93
2019-04-10T04:04:53.829Z,5.89
2019-04-10T04:05:53.621Z,5.86
2019-04-10T04:06:53.609Z,5.86
2019-04-10T04:07:53.596Z,5.82
2019-04-10T04:09:03.271Z,5.83
2019-04-10T04:09:53.679Z,5.83
2019-04-10T04:10:53.560Z,5.82
2019-04-10T04:11:53.754Z,5.87
2019-04-10T04:12:53.539Z,5.82
2019-04-10T04:13:53.521Z,5.71
2019-04-10T04:14:53.509Z,5.79
2019-04-10T04:15:54.490Z,5.75
2019-04-10T04:16:53.613Z,5.75
2019-04-10T04:17:53.473Z,5.75
2019-04-10T04:18:53.459Z,5.73
2019-04-10T04:19:54.559Z,5.66
2019-04-10T04:20:53.439Z,5.66
2019-04-10T04:21:54.348Z,5.59
2019-04-10T04:22:53.413Z,5.68
2019-04-10T04:23:53.399Z,5.64
2019-04-10T04:24:53.388Z,5.66
2019-04-10T04:25:53.374Z,5.66
2019-04-10T04:26:53.359Z,5.68
2019-04-10T04:27:53.883Z,5.66
2019-04-10T04:28:53.764Z,5.64
2019-04-10T04:29:53.322Z,5.62
2019-04-10T04:30:53.852Z,5.61
2019-04-10T04:31:53.296Z,5.66
2019-04-10T04:32:53.894Z,5.48
2019-04-10T04:33:53.359Z,5.54
2019-04-10T04:34:54.207Z,5.62
2019-04-10T04:35:53.297Z,5.51
2019-04-10T04:36:53.601Z,5.64
2019-04-10T04:37:53.221Z,5.48
2019-04-10T04:38:53.331Z,5.56
2019-04-10T04:39:54.247Z,5.57
2019-04-10T04:40:53.182Z,5.56
2019-04-10T04:41:53.235Z,5.56
2019-04-10T04:42:53.612Z,5.51
2019-04-10T04:43:53.399Z,5.48
2019-04-10T04:44:54.155Z,5.51
2019-04-10T04:45:53.157Z,5.48
2019-04-10T04:46:53.106Z,5.47
2019-04-10T04:47:54.022Z,5.48
2019-04-10T04:48:54.232Z,5.43
2019-04-10T04:49:53.068Z,5.43
2019-04-10T04:50:53.066Z,5.41
2019-04-10T04:51:53.041Z,5.38
2019-04-10T04:52:53.662Z,5.43
2019-04-10T04:53:53.017Z,5.36
2019-04-10T04:54:53.334Z,5.39
2019-04-10T04:55:53.382Z,5.32
2019-04-10T04:56:52.984Z,5.41
2019-04-10T04:57:53.488Z,5.41
2019-04-10T04:58:53.872Z,5.43
2019-04-10T04:59:52.940Z,5.35
2019-04-10T05:00:52.930Z,5.41
2019-04-10T05:01:53.005Z,5.32
2019-04-10T05:02:53.704Z,5.41
2019-04-10T05:03:52.889Z,5.35
2019-04-10T05:04:53.545Z,5.33
2019-04-10T05:05:53.928Z,5.35
2019-04-10T05:06:52.853Z,5.33
2019-04-10T05:07:59.292Z,5.36
2019-04-10T05:08:52.827Z,5.41
2019-04-10T05:09:52.813Z,5.28
2019-04-10T05:10:53.762Z,5.41
2019-04-10T05:11:53.075Z,5.41
2019-04-10T05:12:53.610Z,5.30
2019-04-10T05:13:53.087Z,5.38
2019-04-10T05:14:53.652Z,5.30
2019-04-10T05:15:53.367Z,5.26
2019-04-10T05:16:52.730Z,5.36
2019-04-10T05:17:53.552Z,5.26
2019-04-10T05:18:52.697Z,5.23
2019-04-10T05:19:52.685Z,5.35
2019-04-10T05:20:52.731Z,5.32
2019-04-10T05:21:52.660Z,5.35
2019-04-10T05:22:54.709Z,5.28
2019-04-10T05:23:53.350Z,5.35
2019-04-10T05:24:52.628Z,5.32
2019-04-10T05:25:52.609Z,5.29
2019-04-10T05:26:53.544Z,5.32
2019-04-10T05:27:52.584Z,5.38
2019-04-10T05:28:52.873Z,5.43
2019-04-10T05:29:53.458Z,5.41
2019-04-10T05:30:52.711Z,5.30
2019-04-10T05:31:53.081Z,5.26
2019-04-10T05:32:52.523Z,5.33
2019-04-10T05:33:53.252Z,5.35
2019-04-10T05:34:52.527Z,5.38
2019-04-10T05:35:52.852Z,5.30
2019-04-10T05:36:52.468Z,5.29
2019-04-10T05:37:52.469Z,5.38
2019-04-10T05:38:52.588Z,5.33
2019-04-10T05:39:53.786Z,5.33
2019-04-10T05:40:52.738Z,5.39
2019-04-10T05:41:52.406Z,5.43
2019-04-10T05:42:53.298Z,5.48
2019-04-10T05:43:52.999Z,5.46
2019-04-10T05:44:52.372Z,5.39
2019-04-10T05:45:52.993Z,5.47
2019-04-10T05:46:52.694Z,5.53
2019-04-10T05:47:52.848Z,5.50
2019-04-10T05:48:52.622Z,5.46
2019-04-10T05:49:53.275Z,5.50
2019-04-10T05:50:57.909Z,5.54
2019-04-10T05:51:53.279Z,5.59
2019-04-10T05:52:52.267Z,5.57
2019-04-10T05:53:53.650Z,5.62
2019-04-10T05:54:52.240Z,5.61
2019-04-10T05:55:52.227Z,5.62
2019-04-10T05:56:52.582Z,5.59
2019-04-10T05:57:53.169Z,5.62
2019-04-10T05:58:52.189Z,5.69
2019-04-10T05:59:52.379Z,5.75
2019-04-10T06:00:53.322Z,5.76
2019-04-10T06:01:52.751Z,5.79
2019-04-10T06:02:52.243Z,5.80
2019-04-10T06:03:52.573Z,5.86
2019-04-10T06:04:52.117Z,5.82
2019-04-10T06:05:52.104Z,5.86
2019-04-10T06:06:52.700Z,5.75
2019-04-10T06:07:52.079Z,5.76
2019-04-10T06:08:52.068Z,5.73
2019-04-10T06:09:58.381Z,5.61
2019-04-10T06:10:52.044Z,5.71
2019-04-10T06:11:53.095Z,5.73
2019-04-10T06:12:53.003Z,5.71
2019-04-10T06:13:52.742Z,5.72
2019-04-10T06:14:52.763Z,5.79
2019-04-10T06:15:52.975Z,5.83
2019-04-10T06:16:52.872Z,5.86
2019-04-10T06:17:51.960Z,5.94
2019-04-10T06:18:51.946Z,5.94
2019-04-10T06:19:53.002Z,5.89
2019-04-10T06:20:51.921Z,5.99
2019-04-10T06:21:52.443Z,6.02
2019-04-10T06:22:52.759Z,6.14
2019-04-10T06:23:51.919Z,6.14
2019-04-10T06:24:52.239Z,6.22
2019-04-10T06:25:51.970Z,6.22
2019-04-10T06:26:52.071Z,6.46
2019-04-10T06:27:52.643Z,6.60
2019-04-10T06:28:52.655Z,6.54
2019-04-10T06:29:53.066Z,6.54
2019-04-10T06:30:52.340Z,6.54
2019-04-10T06:31:52.758Z,6.60
2019-04-10T06:32:51.779Z,6.56
2019-04-10T06:33:52.792Z,6.63
2019-04-10T06:34:51.773Z,6.63
2019-04-10T06:35:51.744Z,6.72
2019-04-10T06:36:51.733Z,6.70
2019-04-10T06:37:52.540Z,6.85
2019-04-10T06:38:52.796Z,6.79
2019-04-10T06:40:03.653Z,6.78
2019-04-10T06:40:52.356Z,6.82
2019-04-10T06:41:51.787Z,6.81
2019-04-10T06:42:53.932Z,6.87
2019-04-10T06:43:51.652Z,6.93
2019-04-10T06:44:52.366Z,6.99
2019-04-10T06:45:52.372Z,6.95
2019-04-10T06:46:52.610Z,7.02
2019-04-10T06:47:52.888Z,6.99
2019-04-10T06:48:52.051Z,7.00
2019-04-10T06:49:52.558Z,6.96
2019-04-10T06:50:51.572Z,7.00
2019-04-10T06:51:51.563Z,7.14
2019-04-10T06:52:51.550Z,7.24
2019-04-10T06:54:00.800Z,7.31
2019-04-10T06:54:51.527Z,7.36
2019-04-10T06:55:52.381Z,7.40
2019-04-10T06:56:52.401Z,7.32
2019-04-10T06:57:57.309Z,7.40
2019-04-10T06:58:52.010Z,7.42
2019-04-10T06:59:52.349Z,7.43
2019-04-10T07:00:53.368Z,7.48
2019-04-10T07:01:55.091Z,7.45
2019-04-10T07:02:52.595Z,7.53
2019-04-10T07:03:59.119Z,7.50
2019-04-10T07:04:54.904Z,7.42
2019-04-10T07:06:02.432Z,7.51
2019-04-10T07:07:00.139Z,7.70
2019-04-10T07:07:56.679Z,7.72
2019-04-10T07:08:53.350Z,7.67
2019-04-10T07:09:52.324Z,7.69
2019-04-10T07:10:57.837Z,7.76
2019-04-10T07:11:55.554Z,7.79
2019-04-10T07:12:51.378Z,7.63
2019-04-10T07:13:53.414Z,7.51
2019-04-10T07:14:55.260Z,7.51
2019-04-10T07:15:54.486Z,7.53
2019-04-10T07:16:51.288Z,7.63
2019-04-10T07:17:51.375Z,7.72
2019-04-10T07:18:51.970Z,7.77
2019-04-10T07:19:51.444Z,7.83
2019-04-10T07:20:51.245Z,7.80
2019-04-10T07:21:51.300Z,7.94
2019-04-10T07:22:51.375Z,8.10
2019-04-10T07:23:52.374Z,8.26
2019-04-10T07:24:52.219Z,8.30
2019-04-10T07:25:51.996Z,8.44
2019-04-10T07:26:51.183Z,8.48
2019-04-10T07:27:52.241Z,8.55
2019-04-10T07:28:51.895Z,8.55
2019-04-10T07:29:55.154Z,8.53
2019-04-10T07:30:52.004Z,8.63
2019-04-10T07:31:51.137Z,8.66
2019-04-10T07:32:51.130Z,8.56
2019-04-10T07:33:52.000Z,8.58
2019-04-10T07:34:51.113Z,8.63
2019-04-10T07:35:54.596Z,8.70
2019-04-10T07:36:51.953Z,8.91
2019-04-10T07:37:54.316Z,8.95
2019-04-10T07:38:53.888Z,9.14
2019-04-10T07:39:51.076Z,9.13
2019-04-10T07:40:51.306Z,9.19
2019-04-10T07:41:51.069Z,9.19
2019-04-10T07:42:51.059Z,9.21
2019-04-10T07:43:54.320Z,9.26
2019-04-10T07:44:51.046Z,9.25
2019-04-10T07:45:51.041Z,9.25
2019-04-10T07:46:51.036Z,9.25
2019-04-10T07:47:51.756Z,9.36
2019-04-10T07:48:51.025Z,9.40
2019-04-10T07:49:51.019Z,9.41
2019-04-10T07:50:51.578Z,9.37
2019-04-10T07:51:51.937Z,9.26
2019-04-10T07:52:52.000Z,9.10
2019-04-10T07:53:51.240Z,9.02
2019-04-10T07:54:50.993Z,9.06
2019-04-10T07:56:01.187Z,9.08
2019-04-10T07:56:51.521Z,9.11
2019-04-10T07:57:51.779Z,9.26
2019-04-10T07:58:51.780Z,9.29
2019-04-10T07:59:50.969Z,9.43
2019-04-10T08:00:51.424Z,9.69
2019-04-10T08:01:51.714Z,9.74
2019-04-10T08:02:51.158Z,9.94
2019-04-10T08:03:52.464Z,9.98
2019-04-10T08:04:51.669Z,10.23
2019-04-10T08:05:50.945Z,10.48
2019-04-10T08:06:50.939Z,10.54
2019-04-10T08:07:53.382Z,10.51
2019-04-10T08:08:51.270Z,10.57
2019-04-10T08:09:51.869Z,10.40
2019-04-10T08:10:50.994Z,10.09
2019-04-10T08:11:51.029Z,9.98
2019-04-10T08:12:53.673Z,9.98
2019-04-10T08:13:51.238Z,10.09
2019-04-10T08:14:52.018Z,10.30
2019-04-10T08:15:52.142Z,10.54
2019-04-10T08:16:51.877Z,10.76
2019-04-10T08:17:51.422Z,10.82
2019-04-10T08:18:52.071Z,11.18
2019-04-10T08:19:50.988Z,11.33
2019-04-10T08:20:50.944Z,11.27
2019-04-10T08:21:50.895Z,11.40
2019-04-10T08:22:51.219Z,11.18
2019-04-10T08:23:51.646Z,10.99
2019-04-10T08:24:51.226Z,10.84
2019-04-10T08:25:51.641Z,10.79
2019-04-10T08:26:50.884Z,10.67
2019-04-10T08:27:50.882Z,10.74
2019-04-10T08:28:51.701Z,10.75
2019-04-10T08:29:50.879Z,10.86
2019-04-10T08:30:50.876Z,10.92
2019-04-10T08:31:50.880Z,10.93
2019-04-10T08:32:57.116Z,11.05
2019-04-10T08:33:50.872Z,11.27
2019-04-10T08:34:51.302Z,11.15
2019-04-10T08:35:50.867Z,10.99
2019-04-10T08:36:52.853Z,11.14
2019-04-10T08:37:50.911Z,11.04
2019-04-10T08:38:50.924Z,11.00
2019-04-10T08:39:52.441Z,11.10
2019-04-10T08:40:50.861Z,11.17
2019-04-10T08:41:50.865Z,11.55
2019-04-10T08:42:51.316Z,11.75
2019-04-10T08:43:50.857Z,11.72
2019-04-10T08:44:52.078Z,12.00
2019-04-10T08:45:52.244Z,12.06
2019-04-10T08:46:50.855Z,12.24
2019-04-10T08:47:50.915Z,12.31
2019-04-10T08:48:51.881Z,12.03
2019-04-10T08:49:50.855Z,12.04
2019-04-10T08:50:50.855Z,12.15
2019-04-10T08:51:52.039Z,12.13
2019-04-10T08:52:50.857Z,12.29
2019-04-10T08:53:53.645Z,12.57
2019-04-10T08:54:51.219Z,12.82
2019-04-10T08:55:50.856Z,12.64
2019-04-10T08:56:50.859Z,12.35
2019-04-10T08:57:50.858Z,12.29
2019-04-10T08:58:51.735Z,12.36
2019-04-10T08:59:52.011Z,12.07
2019-04-10T09:00:52.578Z,12.04
2019-04-10T09:01:50.862Z,12.09
2019-04-10T09:02:50.868Z,12.39
2019-04-10T09:03:51.031Z,12.58
2019-04-10T09:04:51.082Z,12.87
2019-04-10T09:05:51.141Z,12.90
2019-04-10T09:06:51.548Z,12.91
2019-04-10T09:07:50.867Z,12.87
2019-04-10T09:08:51.013Z,12.86
2019-04-10T09:09:51.902Z,13.13
2019-04-10T09:10:50.874Z,13.20
2019-04-10T09:11:51.587Z,13.39
2019-04-10T09:12:51.660Z,13.37
2019-04-10T09:13:50.878Z,13.42
2019-04-10T09:14:51.765Z,13.52
2019-04-10T09:15:51.028Z,13.62
2019-04-10T09:16:51.137Z,13.74
2019-04-10T09:17:51.401Z,13.74
2019-04-10T09:18:51.573Z,13.60
2019-04-10T09:19:51.910Z,13.75
2019-04-10T09:20:51.038Z,14.00
2019-04-10T09:21:51.917Z,14.40
2019-04-10T09:23:14.665Z,14.58
2019-04-10T09:23:53.377Z,14.51
2019-04-10T09:24:50.906Z,14.59
2019-04-10T09:25:51.282Z,14.82
2019-04-10T09:26:50.950Z,14.79
2019-04-10T09:27:51.764Z,15.09
2019-04-10T09:28:50.922Z,15.18
2019-04-10T09:29:52.017Z,15.22
2019-04-10T09:30:51.315Z,15.00
2019-04-10T09:31:50.931Z,14.96
2019-04-10T09:32:50.936Z,14.45
2019-04-10T09:33:51.515Z,14.20
2019-04-10T09:34:51.992Z,14.23
2019-04-10T09:35:51.008Z,14.41
2019-04-10T09:36:51.398Z,14.28
2019-04-10T09:37:50.956Z,14.28
2019-04-10T09:38:50.997Z,14.59
2019-04-10T09:39:52.442Z,14.82
2019-04-10T09:40:50.967Z,14.66
2019-04-10T09:41:50.974Z,14.58
2019-04-10T09:42:52.043Z,14.65
2019-04-10T09:43:50.977Z,14.73
2019-04-10T09:44:50.981Z,14.82
2019-04-10T09:45:51.483Z,14.66
2019-04-10T09:46:51.688Z,14.73
2019-04-10T09:47:50.993Z,14.84
2019-04-10T09:48:51.984Z,14.99
2019-04-10T09:49:51.427Z,15.00
2019-04-10T09:50:51.001Z,14.86
2019-04-10T09:51:51.293Z,14.72
2019-04-10T09:52:51.007Z,14.69
2019-04-10T09:53:51.131Z,14.99
2019-04-10T09:54:51.091Z,14.97
2019-04-10T09:55:51.016Z,14.96
2019-04-10T09:56:51.019Z,15.03
2019-04-10T09:57:51.848Z,14.81
2019-04-10T09:58:51.900Z,14.43
2019-04-10T09:59:51.029Z,14.37
2019-04-10T10:00:52.155Z,14.35
2019-04-10T10:01:51.425Z,14.68
2019-04-10T10:02:51.042Z,14.91
2019-04-10T10:03:51.045Z,14.82
2019-04-10T10:04:51.046Z,14.66
2019-04-10T10:05:51.087Z,14.62
2019-04-10T10:06:51.464Z,14.63
2019-04-10T10:07:51.054Z,14.70
2019-04-10T10:08:52.206Z,14.78
2019-04-10T10:09:51.456Z,15.00
2019-04-10T10:10:51.262Z,15.03
2019-04-10T10:11:51.338Z,15.09
2019-04-10T10:12:51.067Z,14.78
2019-04-10T10:13:52.178Z,14.97
2019-04-10T10:14:51.921Z,15.18
2019-04-10T10:15:51.523Z,15.00
2019-04-10T10:16:51.076Z,14.99
2019-04-10T10:17:51.079Z,14.81
2019-04-10T10:18:51.968Z,14.66
2019-04-10T10:19:53.425Z,14.65
2019-04-10T10:20:52.189Z,14.72
2019-04-10T10:21:51.091Z,14.86
2019-04-10T10:22:51.769Z,14.81
2019-04-10T10:23:52.017Z,14.97
2019-04-10T10:24:51.099Z,15.04
2019-04-10T10:25:51.270Z,14.82
2019-04-10T10:26:51.474Z,14.44
2019-04-10T10:27:51.108Z,14.41
2019-04-10T10:28:51.111Z,14.68
2019-04-10T10:29:53.442Z,15.06
2019-04-10T10:30:51.536Z,15.47
2019-04-10T10:31:52.214Z,15.62
2019-04-10T10:32:51.126Z,15.42
2019-04-10T10:33:52.119Z,15.54
2019-04-10T10:34:51.122Z,15.62
2019-04-10T10:35:51.543Z,15.90
2019-04-10T10:36:53.151Z,15.76
2019-04-10T10:37:51.132Z,15.91
2019-04-10T10:39:03.637Z,15.47
2019-04-10T10:39:51.137Z,15.49
2019-04-10T10:40:51.148Z,15.39
2019-04-10T10:41:51.251Z,15.22
2019-04-10T10:42:51.923Z,15.36
2019-04-10T10:43:51.149Z,15.55
2019-04-10T10:44:51.155Z,15.22
2019-04-10T10:45:51.291Z,14.78
2019-04-10T10:46:51.565Z,14.69
2019-04-10T10:47:51.161Z,14.96
2019-04-10T10:48:51.679Z,15.19
2019-04-10T10:49:51.165Z,15.43
2019-04-10T10:50:51.166Z,15.64
2019-04-10T10:51:51.180Z,15.77
2019-04-10T10:52:52.124Z,15.98
2019-04-10T10:53:51.173Z,15.86
2019-04-10T10:54:51.423Z,15.97
2019-04-10T10:55:51.181Z,16.02
2019-04-10T10:56:51.179Z,15.61
2019-04-10T10:57:51.277Z,15.88
2019-04-10T10:58:53.022Z,16.05
2019-04-10T10:59:51.491Z,15.86
2019-04-10T11:00:51.737Z,15.91
2019-04-10T11:01:51.937Z,15.76
2019-04-10T11:02:51.934Z,15.51
2019-04-10T11:03:51.197Z,15.07
2019-04-10T11:04:51.697Z,14.99
2019-04-10T11:05:51.198Z,15.07
2019-04-10T11:06:57.747Z,14.97
2019-04-10T11:07:51.557Z,15.11
2019-04-10T11:08:51.436Z,15.37
2019-04-10T11:09:52.698Z,15.25
2019-04-10T11:10:55.704Z,15.02
2019-04-10T11:11:51.479Z,14.97
2019-04-10T11:12:52.189Z,14.86
2019-04-10T11:13:51.208Z,14.89
2019-04-10T11:14:52.294Z,14.91
2019-04-10T11:15:52.493Z,14.97
2019-04-10T11:16:51.668Z,15.15
2019-04-10T11:17:52.044Z,15.03
2019-04-10T11:18:51.217Z,14.94
2019-04-10T11:19:51.407Z,15.00
2019-04-10T11:20:52.339Z,15.44
2019-04-10T11:21:51.216Z,15.77
2019-04-10T11:22:51.297Z,15.82
2019-04-10T11:23:51.216Z,15.59
2019-04-10T11:24:51.325Z,15.51
2019-04-10T11:25:52.905Z,15.67
2019-04-10T11:26:51.914Z,16.09
2019-04-10T11:27:51.611Z,16.24
2019-04-10T11:28:51.223Z,16.33
2019-04-10T11:29:51.226Z,16.09
2019-04-10T11:30:51.228Z,16.15
2019-04-10T11:31:51.313Z,16.04
2019-04-10T11:32:52.346Z,15.90
2019-04-10T11:33:53.708Z,15.77
2019-04-10T11:34:51.242Z,15.67
2019-04-10T11:35:51.581Z,15.70
2019-04-10T11:37:14.005Z,15.84
2019-04-10T11:37:53.687Z,16.09
2019-04-10T11:38:51.907Z,16.13
2019-04-10T11:39:51.751Z,15.97
2019-04-10T11:40:52.220Z,16.13
2019-04-10T11:41:52.705Z,15.90
2019-04-10T11:42:52.584Z,16.02
2019-04-10T11:43:52.778Z,16.12
2019-04-10T11:44:53.791Z,16.26
2019-04-10T11:45:53.848Z,16.26
2019-04-10T11:46:52.581Z,16.49
2019-04-10T11:47:51.725Z,16.26
2019-04-10T11:48:51.827Z,16.13
2019-04-10T11:49:53.327Z,16.50
2019-04-10T11:50:53.585Z,16.84
2019-04-10T11:51:53.549Z,17.14
2019-04-10T11:52:53.375Z,17.27
2019-04-10T11:53:55.858Z,17.33
2019-04-10T11:54:53.176Z,17.36
2019-04-10T11:55:53.646Z,17.15
2019-04-10T11:56:54.945Z,17.23
2019-04-10T11:57:51.702Z,17.52
2019-04-10T11:58:56.310Z,17.57
2019-04-10T11:59:51.313Z,17.54
2019-04-10T12:00:53.200Z,17.57
2019-04-10T12:01:56.136Z,17.36
2019-04-10T12:02:52.772Z,16.97
2019-04-10T12:03:54.339Z,17.08
2019-04-10T12:04:56.017Z,16.97
2019-04-10T12:05:52.665Z,17.06
2019-04-10T12:06:55.018Z,16.91
2019-04-10T12:08:21.064Z,16.96
2019-04-10T12:09:13.155Z,17.16
2019-04-10T12:11:10.906Z,16.91
2019-04-10T12:11:51.356Z,16.46
2019-04-10T12:12:52.406Z,16.43
2019-04-10T12:13:51.432Z,16.53
2019-04-10T12:14:52.035Z,16.66
2019-04-10T12:15:52.519Z,16.93
2019-04-10T12:16:51.598Z,16.65
2019-04-10T12:17:52.001Z,16.76
2019-04-10T12:18:51.377Z,16.71
2019-04-10T12:19:52.102Z,16.66
2019-04-10T12:20:51.578Z,16.60
2019-04-10T12:21:51.381Z,16.69
2019-04-10T12:22:52.377Z,16.61
2019-04-10T12:23:51.533Z,16.76
2019-04-10T12:24:51.724Z,16.84
2019-04-10T12:25:52.185Z,16.93
2019-04-10T12:26:51.906Z,16.86
2019-04-10T12:27:51.626Z,17.24
2019-04-10T12:28:51.921Z,17.49
2019-04-10T12:29:51.395Z,17.90
2019-04-10T12:30:51.399Z,17.80
2019-04-10T12:31:52.333Z,17.80
2019-04-10T12:32:51.404Z,17.89
2019-04-10T12:33:51.404Z,17.94
2019-04-10T12:34:51.405Z,18.19
2019-04-10T12:35:51.413Z,18.23
2019-04-10T12:36:52.017Z,18.22
2019-04-10T12:37:59.426Z,18.47
2019-04-10T12:38:51.934Z,18.84
2019-04-10T12:39:51.417Z,18.88
2019-04-10T12:40:51.429Z,18.73
2019-04-10T12:41:52.011Z,18.31
2019-04-10T12:42:52.363Z,17.85
2019-04-10T12:43:51.529Z,17.86
2019-04-10T12:44:51.470Z,17.48
2019-04-10T12:45:51.427Z,17.26
2019-04-10T12:46:51.438Z,17.65
2019-04-10T12:47:52.409Z,17.46
2019-04-10T12:48:51.430Z,17.52
2019-04-10T12:49:51.886Z,17.38
2019-04-10T12:50:51.430Z,17.27
2019-04-10T12:51:52.097Z,17.36
2019-04-10T12:52:51.431Z,17.57
2019-04-10T12:53:51.986Z,17.65
2019-04-10T12:54:51.431Z,17.60
2019-04-10T12:55:51.520Z,17.79
2019-04-10T12:56:52.588Z,17.60
2019-04-10T12:57:51.431Z,17.41
2019-04-10T12:58:51.430Z,17.85
2019-04-10T12:59:51.962Z,18.13
2019-04-10T13:00:52.133Z,18.13
2019-04-10T13:01:51.429Z,18.22
2019-04-10T13:02:52.448Z,18.37
2019-04-10T13:03:51.604Z,18.86
2019-04-10T13:04:52.474Z,18.99
2019-04-10T13:05:51.571Z,19.27
2019-04-10T13:06:52.755Z,19.73
2019-04-10T13:07:51.916Z,20.24
2019-04-10T13:09:00.815Z,19.95
2019-04-10T13:09:51.432Z,19.66